TGPY/GND METAR and TAF weather

Enter ICAO airport designator
Station Type Date Time Source
TGPY METAR 2021/03/08 12:00 UTC NOAA

TGPY 081200Z 08012KT 9999 FEW018 SCT036 27/22 Q1016 NOSIG RMK ADJ SHRA-SSW


Station Type Date Time Source
TGPY Decoded METAR 2021/03/08 12:00 UTC NOAA

Point Salines Airport, Grenada (TGPY) 12-00N 061-47W 7M
Mar 08, 2021 - 07:00 AM EST / 2021.03.08 1200 UTC
Wind: from the E (080 degrees) at 14 MPH (12 KT):0
Visibility: greater than 7 mile(s):0
Sky conditions: partly cloudy
Temperature: 80 F (27 C)
Dew Point: 71 F (22 C)
Relative Humidity: 74%
Pressure (altimeter): 30.00 in. Hg (1016 hPa)
ob: TGPY 081200Z 08012KT 9999 FEW018 SCT036 27/22 Q1016 NOSIG RMK ADJ SHRA-SSW
cycle: 12

Station Type Date Time Source
TGPY TAF 2021/03/08 12:45 UTC NOAA

TAF TAF TGPY 081000Z 0812/0912 08016G26KT 9999 SCT018
BECMG 0823/0901 07015KT

Example: see airport list